createdAt,value
2017-08-19T00:02:10.164Z,9.77
2017-08-19T00:04:37.992Z,9.87
2017-08-19T00:07:05.793Z,9.77
2017-08-19T00:09:33.641Z,10.20
2017-08-19T00:12:01.449Z,10.03
2017-08-19T00:14:29.272Z,10.23
2017-08-19T00:16:57.064Z,11.00
2017-08-19T00:19:24.853Z,11.40
2017-08-19T00:21:52.690Z,11.83
2017-08-19T00:24:20.462Z,12.10
2017-08-19T00:26:48.294Z,12.27
2017-08-19T00:29:16.112Z,12.27
2017-08-19T00:31:43.949Z,12.77
2017-08-19T00:34:11.708Z,12.80
2017-08-19T00:36:39.547Z,13.63
2017-08-19T00:39:07.325Z,14.00
2017-08-19T00:41:35.176Z,14.60
2017-08-19T00:44:03.015Z,14.80
2017-08-19T00:46:30.864Z,14.37
2017-08-19T00:48:58.656Z,15.00
2017-08-19T00:51:26.465Z,15.53
2017-08-19T00:53:54.263Z,15.40
2017-08-19T00:56:22.060Z,16.67
2017-08-19T00:58:49.918Z,18.20
2017-08-19T01:01:17.706Z,18.63
2017-08-19T01:03:45.561Z,18.90
2017-08-19T01:06:13.423Z,19.20
2017-08-19T01:08:41.277Z,20.40
2017-08-19T01:11:09.097Z,19.70
2017-08-19T01:13:36.918Z,19.40
2017-08-19T01:16:04.708Z,19.50
2017-08-19T01:18:32.553Z,21.40
2017-08-19T01:21:00.345Z,19.97
2017-08-19T01:23:28.214Z,20.20
2017-08-19T01:26:07.589Z,20.93
2017-08-19T01:28:35.456Z,19.87
2017-08-19T01:31:03.171Z,21.00
2017-08-19T01:33:31.011Z,20.70
2017-08-19T01:35:58.789Z,20.63
2017-08-19T01:38:26.577Z,20.83
2017-08-19T01:40:54.385Z,21.17
2017-08-19T01:43:22.148Z,21.07
2017-08-19T01:45:49.993Z,22.50
2017-08-19T01:48:17.774Z,21.80
2017-08-19T01:50:45.605Z,22.87
2017-08-19T01:53:13.377Z,22.87
2017-08-19T01:55:41.197Z,21.03
2017-08-19T01:58:08.962Z,19.53
2017-08-19T02:00:36.780Z,19.43
2017-08-19T02:03:04.565Z,18.50
2017-08-19T02:05:32.393Z,19.03
2017-08-19T02:08:00.179Z,19.33
2017-08-19T02:10:28.009Z,17.13
2017-08-19T02:12:55.812Z,18.20
2017-08-19T02:15:23.604Z,16.90
2017-08-19T02:17:51.430Z,15.90
2017-08-19T02:20:19.221Z,16.70
2017-08-19T02:22:47.048Z,16.40
2017-08-19T02:25:14.824Z,15.43
2017-08-19T02:27:42.683Z,15.83
2017-08-19T02:30:10.423Z,15.30
2017-08-19T02:32:38.246Z,14.50
2017-08-19T02:35:06.012Z,15.37
2017-08-19T02:37:33.842Z,14.53
2017-08-19T02:40:01.615Z,16.80
2017-08-19T02:42:29.462Z,15.87
2017-08-19T02:44:57.256Z,14.30
2017-08-19T02:47:25.053Z,14.93
2017-08-19T02:49:52.892Z,15.27
2017-08-19T02:52:20.677Z,15.40
2017-08-19T02:54:48.656Z,14.37
2017-08-19T02:57:16.447Z,13.93
2017-08-19T02:59:44.271Z,13.43
2017-08-19T03:02:12.089Z,13.80
2017-08-19T03:04:39.901Z,12.33
2017-08-19T03:07:08.448Z,12.90
2017-08-19T03:09:36.275Z,11.60
2017-08-19T03:12:04.080Z,10.87
2017-08-19T03:14:31.919Z,10.10
2017-08-19T03:16:59.715Z,9.90
2017-08-19T03:19:27.496Z,9.27
2017-08-19T03:21:55.335Z,9.80
2017-08-19T03:24:23.102Z,9.70
2017-08-19T03:26:50.929Z,9.63
2017-08-19T03:29:18.770Z,9.07
2017-08-19T03:31:46.587Z,9.80
2017-08-19T03:34:14.360Z,9.30
2017-08-19T03:36:42.198Z,9.00
2017-08-19T03:39:09.988Z,9.63
2017-08-19T03:41:37.813Z,9.87
2017-08-19T03:44:05.536Z,9.23
2017-08-19T03:46:34.319Z,8.80
2017-08-19T03:49:02.126Z,9.70
2017-08-19T03:51:29.911Z,9.00
2017-08-19T03:53:57.666Z,8.03
2017-08-19T03:56:25.433Z,9.50
2017-08-19T03:58:53.179Z,8.53
2017-08-19T04:01:20.971Z,9.47
2017-08-19T04:03:48.805Z,9.50
2017-08-19T04:06:16.597Z,9.00
2017-08-19T04:08:44.365Z,9.87
2017-08-19T04:11:12.177Z,9.43
2017-08-19T04:13:39.949Z,9.47
2017-08-19T04:16:07.753Z,9.37
2017-08-19T04:18:35.520Z,9.60
2017-08-19T04:21:03.339Z,8.90
2017-08-19T04:23:31.112Z,9.17
2017-08-19T04:25:58.939Z,9.60
2017-08-19T04:28:26.767Z,8.37
2017-08-19T04:30:54.595Z,8.57
2017-08-19T04:33:22.360Z,8.23
2017-08-19T04:35:50.075Z,8.70
2017-08-19T04:38:17.908Z,8.60
2017-08-19T04:40:45.724Z,9.20
2017-08-19T04:43:13.561Z,8.40
2017-08-19T04:45:41.445Z,8.33
2017-08-19T04:48:09.289Z,9.37
2017-08-19T04:50:36.988Z,8.20
2017-08-19T04:53:04.726Z,9.10
2017-08-19T04:55:32.497Z,9.23
2017-08-19T04:58:00.305Z,9.20
2017-08-19T05:00:28.122Z,9.70
2017-08-19T05:02:55.995Z,8.60
2017-08-19T05:05:23.683Z,9.57
2017-08-19T05:07:51.512Z,8.70
2017-08-19T05:10:19.302Z,9.10
2017-08-19T05:12:47.116Z,9.50
2017-08-19T05:15:14.942Z,9.07
2017-08-19T05:17:42.758Z,8.53
2017-08-19T05:20:10.672Z,7.73
2017-08-19T05:22:38.457Z,8.70
2017-08-19T05:25:06.293Z,7.93
2017-08-19T05:27:34.077Z,7.13
2017-08-19T05:30:01.945Z,7.33
2017-08-19T05:32:29.720Z,6.70
2017-08-19T05:34:57.543Z,6.40
2017-08-19T05:37:25.334Z,6.70
2017-08-19T05:39:53.144Z,6.60
2017-08-19T05:42:20.913Z,7.10
2017-08-19T05:44:48.732Z,6.63
2017-08-19T05:47:16.504Z,7.37
2017-08-19T05:49:44.313Z,7.57
2017-08-19T05:52:12.141Z,6.43
2017-08-19T05:54:39.935Z,6.70
2017-08-19T05:57:07.756Z,6.30
2017-08-19T05:59:35.520Z,6.07
2017-08-19T06:02:03.348Z,5.90
2017-08-19T06:04:31.184Z,5.80
2017-08-19T06:06:59.000Z,6.93
2017-08-19T06:09:26.788Z,6.73
2017-08-19T06:11:54.604Z,6.37
2017-08-19T06:14:22.366Z,6.23
2017-08-19T06:16:50.136Z,6.80
2017-08-19T06:19:17.969Z,6.40
2017-08-19T06:21:45.752Z,6.40
2017-08-19T06:24:13.583Z,6.50
2017-08-19T06:26:41.380Z,5.80
2017-08-19T06:29:09.271Z,6.33
2017-08-19T06:31:37.053Z,6.20
2017-08-19T06:34:04.874Z,6.37
2017-08-19T06:36:32.660Z,6.80
2017-08-19T06:39:00.487Z,6.53
2017-08-19T06:41:28.290Z,6.20
2017-08-19T06:43:56.104Z,5.80
2017-08-19T06:46:23.877Z,6.63
2017-08-19T06:48:51.715Z,5.10
2017-08-19T06:51:19.520Z,5.60
2017-08-19T06:53:47.379Z,5.30
2017-08-19T06:56:15.082Z,4.77
2017-08-19T06:58:42.787Z,5.10
2017-08-19T07:01:10.572Z,4.83
2017-08-19T07:03:38.263Z,4.73
2017-08-19T07:06:06.005Z,5.87
2017-08-19T07:08:33.706Z,5.00
2017-08-19T07:11:01.477Z,4.37
2017-08-19T07:13:29.176Z,4.17
2017-08-19T07:15:56.908Z,4.47
2017-08-19T07:18:24.597Z,3.83
2017-08-19T07:20:52.356Z,4.20
2017-08-19T07:23:20.044Z,3.30
2017-08-19T07:25:47.765Z,3.90
2017-08-19T07:28:15.517Z,3.43
2017-08-19T07:30:43.232Z,3.40
2017-08-19T07:33:11.007Z,3.27
2017-08-19T07:35:38.712Z,3.40
2017-08-19T07:38:06.461Z,3.10
2017-08-19T07:40:34.176Z,3.10
2017-08-19T07:43:01.913Z,3.13
2017-08-19T07:45:29.599Z,2.70
2017-08-19T07:47:57.337Z,3.10
2017-08-19T07:50:25.042Z,3.13
2017-08-19T07:52:52.732Z,2.43
2017-08-19T07:55:20.473Z,2.53
2017-08-19T07:57:48.182Z,2.30
2017-08-19T08:00:15.921Z,2.17
2017-08-19T08:02:43.654Z,2.27
2017-08-19T08:05:11.412Z,2.80
2017-08-19T08:07:39.115Z,2.50
2017-08-19T08:10:06.861Z,2.30
2017-08-19T08:12:34.551Z,2.60
2017-08-19T08:15:02.280Z,2.13
2017-08-19T08:17:30.022Z,2.63
2017-08-19T08:19:57.773Z,2.53
2017-08-19T08:22:25.464Z,2.13
2017-08-19T08:24:53.145Z,2.03
2017-08-19T08:27:20.899Z,2.30
2017-08-19T08:29:48.652Z,2.53
2017-08-19T08:32:16.390Z,1.97
2017-08-19T08:34:44.093Z,2.03
2017-08-19T08:37:11.845Z,1.97
2017-08-19T08:39:39.567Z,1.90
2017-08-19T08:42:07.318Z,2.40
2017-08-19T08:44:35.013Z,2.00
2017-08-19T08:47:02.766Z,2.17
2017-08-19T08:49:30.471Z,2.33
2017-08-19T08:51:58.224Z,2.20
2017-08-19T08:54:25.920Z,1.90
2017-08-19T08:56:53.623Z,2.40
2017-08-19T08:59:21.402Z,2.10
2017-08-19T09:01:49.132Z,2.23
2017-08-19T09:04:16.885Z,2.23
2017-08-19T09:06:44.587Z,2.00
2017-08-19T09:09:12.334Z,2.50
2017-08-19T09:11:40.020Z,2.30
2017-08-19T09:14:07.755Z,2.20
2017-08-19T09:16:35.463Z,2.63
2017-08-19T09:19:03.326Z,2.60
2017-08-19T09:21:31.153Z,2.10
2017-08-19T09:23:58.857Z,2.27
2017-08-19T09:26:26.697Z,2.17
2017-08-19T09:28:54.418Z,2.20
2017-08-19T09:31:22.242Z,2.60
2017-08-19T09:33:50.035Z,2.27
2017-08-19T09:36:17.890Z,2.37
2017-08-19T09:38:45.672Z,2.20
2017-08-19T09:41:13.480Z,2.30
2017-08-19T09:43:41.241Z,2.53
2017-08-19T09:46:09.096Z,2.53
2017-08-19T09:48:36.886Z,2.40
2017-08-19T09:51:04.667Z,3.10
2017-08-19T09:53:32.501Z,2.47
2017-08-19T09:56:00.205Z,2.70
2017-08-19T09:58:28.981Z,2.67
2017-08-19T10:00:56.779Z,2.33
2017-08-19T10:03:24.627Z,2.40
2017-08-19T10:05:52.448Z,2.17
2017-08-19T10:08:32.104Z,2.80
2017-08-19T10:11:11.584Z,2.90
2017-08-19T10:13:39.485Z,3.10
2017-08-19T10:16:07.257Z,2.93
2017-08-19T10:18:35.162Z,2.83
2017-08-19T10:21:03.009Z,3.33
2017-08-19T10:23:30.915Z,2.73
2017-08-19T10:25:58.745Z,3.30
2017-08-19T10:28:26.471Z,3.17
2017-08-19T10:30:54.377Z,3.07
2017-08-19T10:33:22.227Z,3.33
2017-08-19T10:35:50.105Z,3.07
2017-08-19T10:38:18.015Z,3.90
2017-08-19T10:40:45.850Z,2.97
2017-08-19T10:43:13.550Z,3.40
2017-08-19T10:45:41.307Z,3.50
2017-08-19T10:48:09.026Z,3.50
2017-08-19T10:50:36.949Z,3.07
2017-08-19T10:53:04.646Z,3.20
2017-08-19T10:55:32.485Z,2.70
2017-08-19T10:58:00.412Z,3.13
2017-08-19T11:00:28.268Z,3.30
2017-08-19T11:02:56.252Z,3.50
2017-08-19T11:05:24.137Z,3.03
2017-08-19T11:07:52.069Z,3.60
2017-08-19T11:10:19.853Z,3.10
2017-08-19T11:12:47.731Z,3.10
2017-08-19T11:15:15.598Z,3.53
2017-08-19T11:17:43.513Z,3.00
2017-08-19T11:20:11.345Z,3.30
2017-08-19T11:22:39.309Z,3.33
2017-08-19T11:25:06.996Z,3.53
2017-08-19T11:27:34.837Z,3.70
2017-08-19T11:30:02.797Z,3.50
2017-08-19T11:32:30.708Z,3.33
2017-08-19T11:34:58.482Z,2.77
2017-08-19T11:37:26.369Z,3.10
2017-08-19T11:39:54.324Z,2.80
2017-08-19T11:42:22.148Z,2.83
2017-08-19T11:44:50.025Z,2.70
2017-08-19T11:47:17.928Z,2.50
2017-08-19T11:49:45.838Z,3.00
2017-08-19T11:52:13.691Z,2.73
2017-08-19T11:54:41.671Z,3.00
2017-08-19T11:57:09.465Z,2.90
2017-08-19T11:59:37.267Z,3.03
2017-08-19T12:02:05.140Z,2.23
2017-08-19T12:04:32.934Z,3.07
2017-08-19T12:07:00.780Z,2.53
2017-08-19T12:09:28.566Z,2.60
2017-08-19T12:11:56.434Z,2.50
2017-08-19T12:14:24.231Z,3.00
2017-08-19T12:16:52.164Z,2.70
2017-08-19T12:19:19.933Z,2.80
2017-08-19T12:21:47.769Z,3.43
2017-08-19T12:24:15.578Z,3.77
2017-08-19T12:26:43.398Z,3.20
2017-08-19T12:29:11.260Z,3.63
2017-08-19T12:31:39.058Z,2.90
2017-08-19T12:34:06.846Z,3.10
2017-08-19T12:36:34.640Z,2.83
2017-08-19T12:39:02.544Z,2.70
2017-08-19T12:41:30.328Z,2.93
2017-08-19T12:43:58.162Z,2.63
2017-08-19T12:46:25.942Z,2.80
2017-08-19T12:48:53.745Z,2.90
2017-08-19T12:51:21.538Z,2.57
2017-08-19T12:53:49.401Z,2.80
2017-08-19T12:56:17.224Z,2.93
2017-08-19T12:58:47.285Z,3.30
2017-08-19T13:01:15.328Z,3.30
2017-08-19T13:03:43.968Z,3.00
2017-08-19T13:06:13.374Z,3.30
2017-08-19T13:08:43.374Z,3.13
2017-08-19T13:11:14.699Z,3.13
2017-08-19T13:13:43.096Z,3.27
2017-08-19T13:16:10.909Z,3.30
2017-08-19T13:18:40.499Z,3.57
2017-08-19T13:21:09.436Z,3.50
2017-08-19T13:23:38.644Z,3.40
2017-08-19T13:26:07.364Z,3.03
2017-08-19T13:28:36.781Z,3.60
2017-08-19T13:31:07.378Z,3.93
2017-08-19T13:33:35.994Z,3.70
2017-08-19T13:36:07.259Z,4.03
2017-08-19T13:38:36.052Z,4.07
2017-08-19T13:41:05.340Z,3.73
2017-08-19T13:43:33.906Z,3.73
2017-08-19T13:46:02.904Z,3.53
2017-08-19T13:48:32.220Z,4.10
2017-08-19T13:51:01.432Z,3.50
2017-08-19T13:53:29.736Z,3.30
2017-08-19T13:55:58.113Z,3.70
2017-08-19T13:58:29.237Z,4.00
2017-08-19T14:00:58.594Z,3.47
2017-08-19T14:03:28.314Z,3.20
2017-08-19T14:05:56.153Z,2.80
2017-08-19T14:08:25.438Z,2.60
2017-08-19T14:10:53.833Z,2.93
2017-08-19T14:13:22.828Z,2.83
2017-08-19T14:15:52.731Z,2.97
2017-08-19T14:18:20.994Z,3.20
2017-08-19T14:20:48.830Z,3.20
2017-08-19T14:23:17.516Z,3.20
2017-08-19T14:28:22.330Z,2.60
2017-08-19T14:33:25.977Z,2.93
2017-08-19T14:35:53.877Z,2.63
2017-08-19T14:38:25.133Z,2.53
2017-08-19T14:40:55.277Z,2.60
2017-08-19T14:43:24.017Z,2.83
2017-08-19T14:45:53.299Z,2.50
2017-08-19T14:48:21.239Z,3.10
2017-08-19T14:50:49.076Z,2.20
2017-08-19T14:53:19.509Z,2.20
2017-08-19T14:55:50.221Z,2.60
2017-08-19T14:58:19.786Z,2.20
2017-08-19T15:00:47.875Z,2.90
2017-08-19T15:03:15.803Z,2.67
2017-08-19T15:05:44.873Z,2.40
2017-08-19T15:08:12.572Z,2.10
2017-08-19T15:10:40.889Z,2.37
2017-08-19T15:13:10.600Z,2.63
2017-08-19T15:15:39.737Z,2.37
2017-08-19T15:18:10.518Z,2.27
2017-08-19T15:20:40.658Z,2.40
2017-08-19T15:23:09.451Z,2.30
2017-08-19T15:25:37.424Z,2.60
2017-08-19T15:28:06.612Z,2.50
2017-08-19T15:30:38.646Z,2.30
2017-08-19T15:33:08.195Z,2.50
2017-08-19T15:35:37.604Z,2.50
2017-08-19T15:38:06.076Z,2.57
2017-08-19T15:40:34.393Z,3.10
2017-08-19T15:43:04.072Z,2.30
2017-08-19T15:45:34.087Z,2.93
2017-08-19T15:48:01.957Z,2.80
2017-08-19T15:50:30.271Z,2.00
2017-08-19T15:53:00.917Z,2.50
2017-08-19T15:55:30.125Z,2.67
2017-08-19T15:57:59.369Z,3.23
2017-08-19T16:00:29.449Z,2.40
2017-08-19T16:02:59.633Z,2.50
2017-08-19T16:05:29.450Z,2.50
2017-08-19T16:07:57.394Z,2.60
2017-08-19T16:10:25.776Z,2.20
2017-08-19T16:12:56.728Z,2.40
2017-08-19T16:15:26.265Z,2.40
2017-08-19T16:17:55.636Z,2.40
2017-08-19T16:20:24.465Z,2.33
2017-08-19T16:22:53.513Z,2.23
2017-08-19T16:25:22.462Z,2.00
2017-08-19T16:27:54.293Z,1.87
2017-08-19T16:30:22.186Z,1.97
2017-08-19T16:32:51.589Z,1.70
2017-08-19T16:35:19.776Z,2.23
2017-08-19T16:37:49.188Z,1.67
2017-08-19T16:40:19.216Z,1.80
2017-08-19T16:42:48.389Z,1.90
2017-08-19T16:45:17.601Z,1.80
2017-08-19T16:47:46.779Z,1.90
2017-08-19T16:50:15.548Z,1.70
2017-08-19T16:52:43.405Z,1.90
2017-08-19T16:55:13.256Z,2.23
2017-08-19T16:57:42.529Z,1.97
2017-08-19T17:00:12.950Z,2.13
2017-08-19T17:02:41.664Z,2.07
2017-08-19T17:05:09.548Z,2.57
2017-08-19T17:07:38.549Z,2.10
2017-08-19T17:10:06.554Z,2.50
2017-08-19T17:12:38.544Z,2.20
2017-08-19T17:15:08.879Z,2.40
2017-08-19T17:17:37.663Z,2.30
2017-08-19T17:20:05.971Z,2.40
2017-08-19T17:22:35.710Z,2.20
2017-08-19T17:25:04.480Z,2.30
2017-08-19T17:27:33.407Z,2.50
2017-08-19T17:30:02.699Z,2.20
2017-08-19T17:32:30.990Z,2.53
2017-08-19T17:35:01.770Z,2.53
2017-08-19T17:37:31.446Z,2.40
2017-08-19T17:40:00.235Z,2.83
2017-08-19T17:42:32.079Z,2.57
2017-08-19T17:45:00.985Z,2.80
2017-08-19T17:47:30.351Z,2.60
2017-08-19T17:50:00.552Z,2.90
2017-08-19T17:52:31.733Z,2.80
2017-08-19T17:55:02.473Z,3.00
2017-08-19T17:57:31.464Z,2.70
2017-08-19T18:00:00.511Z,3.00
2017-08-19T18:02:29.310Z,3.13
2017-08-19T18:05:02.009Z,2.93
2017-08-19T18:07:32.320Z,3.10
2017-08-19T18:10:01.662Z,2.90
2017-08-19T18:12:33.437Z,3.23
2017-08-19T18:15:02.605Z,3.10
2017-08-19T18:17:31.745Z,4.13
2017-08-19T18:20:00.510Z,3.47
2017-08-19T18:22:28.768Z,3.17
2017-08-19T18:24:56.536Z,3.50
2017-08-19T18:27:24.835Z,4.07
2017-08-19T18:29:57.215Z,3.50
2017-08-19T18:32:28.025Z,3.83
2017-08-19T18:34:56.866Z,3.90
2017-08-19T18:37:30.320Z,3.53
2017-08-19T18:40:01.527Z,3.93
2017-08-19T18:42:31.897Z,3.63
2017-08-19T18:45:02.341Z,3.63
2017-08-19T18:47:31.202Z,3.77
2017-08-19T18:50:01.675Z,3.73
2017-08-19T18:52:30.732Z,3.70
2017-08-19T18:54:59.434Z,4.17
2017-08-19T18:57:27.901Z,4.30
2017-08-19T18:59:56.963Z,4.13
2017-08-19T19:02:27.374Z,4.70
2017-08-19T19:05:01.074Z,4.57
2017-08-19T19:07:30.436Z,4.50
2017-08-19T19:09:59.797Z,4.50
2017-08-19T19:12:28.425Z,3.70
2017-08-19T19:14:57.474Z,4.00
2017-08-19T19:17:28.533Z,5.27
2017-08-19T19:19:58.040Z,4.70
2017-08-19T19:22:26.893Z,4.73
2017-08-19T19:24:55.657Z,4.40
2017-08-19T19:27:26.245Z,3.80
2017-08-19T19:29:56.954Z,3.40
2017-08-19T19:32:27.258Z,2.73
2017-08-19T19:34:56.689Z,2.20
2017-08-19T19:37:25.444Z,1.87
2017-08-19T19:39:55.960Z,1.60
2017-08-19T19:42:24.811Z,1.30
2017-08-19T19:44:53.150Z,1.50
2017-08-19T19:47:21.653Z,1.40
2017-08-19T19:49:50.289Z,1.40
2017-08-19T19:52:20.188Z,1.40
2017-08-19T19:54:50.432Z,1.30
2017-08-19T19:57:21.073Z,1.23
2017-08-19T19:59:49.632Z,1.33
2017-08-19T20:02:18.815Z,1.40
2017-08-19T20:04:47.994Z,1.60
2017-08-19T20:07:18.905Z,1.20
2017-08-19T20:09:48.078Z,1.70
2017-08-19T20:12:18.236Z,1.43
2017-08-19T20:14:50.665Z,1.70
2017-08-19T20:17:20.697Z,1.70
2017-08-19T20:19:49.949Z,1.50
2017-08-19T20:22:18.357Z,2.30
2017-08-19T20:24:46.637Z,1.50
2017-08-19T20:27:16.266Z,1.80
2017-08-19T20:29:45.916Z,1.60
2017-08-19T20:32:16.192Z,2.00
2017-08-19T20:34:47.655Z,2.00
2017-08-19T20:37:16.377Z,2.10
2017-08-19T20:39:45.358Z,2.33
2017-08-19T20:42:13.540Z,2.33
2017-08-19T20:44:42.603Z,2.30
2017-08-19T20:47:10.488Z,2.10
2017-08-19T20:49:41.064Z,2.17
2017-08-19T20:52:12.262Z,2.43
2017-08-19T20:54:41.464Z,2.63
2017-08-19T20:57:12.500Z,2.30
2017-08-19T20:59:41.279Z,2.47
2017-08-19T21:02:11.877Z,2.40
2017-08-19T21:04:42.769Z,2.57
2017-08-19T21:07:14.499Z,2.83
2017-08-19T21:09:42.677Z,3.00
2017-08-19T21:12:11.099Z,2.97
2017-08-19T21:14:40.401Z,2.50
2017-08-19T21:17:09.017Z,2.57
2017-08-19T21:19:38.292Z,2.60
2017-08-19T21:22:06.935Z,2.20
2017-08-19T21:24:35.677Z,2.87
2017-08-19T21:27:05.129Z,2.60
2017-08-19T21:29:36.120Z,2.63
2017-08-19T21:32:05.029Z,2.90
2017-08-19T21:34:37.850Z,2.83
2017-08-19T21:37:05.692Z,2.60
2017-08-19T21:39:34.304Z,2.77
2017-08-19T21:42:03.386Z,3.50
2017-08-19T21:44:33.067Z,2.90
2017-08-19T21:47:03.849Z,3.07
2017-08-19T21:49:34.617Z,2.70
2017-08-19T21:52:04.990Z,2.77
2017-08-19T21:54:33.740Z,2.70
2017-08-19T21:57:03.329Z,2.83
2017-08-19T21:59:34.450Z,2.73
2017-08-19T22:02:02.340Z,2.63
2017-08-19T22:04:31.889Z,2.80
2017-08-19T22:07:00.921Z,2.60
2017-08-19T22:09:32.672Z,3.00
2017-08-19T22:12:04.306Z,2.73
2017-08-19T22:14:33.064Z,3.33
2017-08-19T22:17:02.084Z,2.87
2017-08-19T22:19:30.792Z,2.80
2017-08-19T22:21:59.652Z,2.57
2017-08-19T22:24:30.198Z,2.77
2017-08-19T22:26:58.819Z,3.17
2017-08-19T22:29:30.177Z,2.80
2017-08-19T22:31:59.600Z,3.20
2017-08-19T22:34:31.007Z,2.90
2017-08-19T22:37:00.513Z,3.23
2017-08-19T22:39:30.961Z,3.90
2017-08-19T22:42:01.073Z,3.50
2017-08-19T22:44:28.951Z,4.33
2017-08-19T22:46:57.678Z,3.20
2017-08-19T22:49:25.554Z,3.50
2017-08-19T22:51:55.522Z,4.00
2017-08-19T22:54:24.196Z,3.40
2017-08-19T22:56:53.003Z,4.07
2017-08-19T22:59:22.485Z,3.90
2017-08-19T23:01:52.840Z,3.60
2017-08-19T23:04:24.166Z,3.77
2017-08-19T23:06:53.749Z,4.00
2017-08-19T23:09:24.661Z,3.57
2017-08-19T23:11:53.550Z,3.60
2017-08-19T23:14:23.672Z,3.63
2017-08-19T23:16:53.061Z,3.27
2017-08-19T23:19:21.766Z,3.40
2017-08-19T23:21:51.427Z,4.00
2017-08-19T23:24:21.452Z,3.73
2017-08-19T23:26:50.686Z,3.77
2017-08-19T23:29:19.126Z,3.23
2017-08-19T23:31:47.374Z,3.83
2017-08-19T23:34:15.861Z,3.60
2017-08-19T23:36:48.169Z,3.67
2017-08-19T23:39:18.804Z,4.23
2017-08-19T23:41:50.531Z,3.77
2017-08-19T23:44:18.456Z,3.60
2017-08-19T23:46:46.949Z,3.60
2017-08-19T23:49:15.341Z,3.87
2017-08-19T23:51:43.248Z,3.83
2017-08-19T23:54:13.956Z,3.40
2017-08-19T23:56:45.985Z,3.50
2017-08-19T23:59:13.815Z,3.50
